sensor_id;sensor_type;location;lat;lon;timestamp;P1;durP1;ratioP1;P2;durP2;ratioP2
21677;SDS011;11000;50.360;7.582;2023-03-01T00:01:47;19.93;;;10.70;;
21677;SDS011;11000;50.360;7.582;2023-03-01T00:04:08;15.53;;;9.57;;
21677;SDS011;11000;50.360;7.582;2023-03-01T00:06:28;19.00;;;10.37;;
21677;SDS011;11000;50.360;7.582;2023-03-01T00:08:49;15.10;;;9.63;;
21677;SDS011;11000;50.360;7.582;2023-03-01T00:11:27;13.50;;;9.10;;
21677;SDS011;11000;50.360;7.582;2023-03-01T00:13:49;13.60;;;9.10;;
21677;SDS011;11000;50.360;7.582;2023-03-01T00:16:14;13.90;;;9.23;;
21677;SDS011;11000;50.360;7.582;2023-03-01T00:18:39;14.70;;;9.90;;
21677;SDS011;11000;50.360;7.582;2023-03-01T00:21:00;12.30;;;9.73;;
21677;SDS011;11000;50.360;7.582;2023-03-01T00:23:21;13.20;;;9.37;;
21677;SDS011;11000;50.360;7.582;2023-03-01T00:25:43;18.20;;;10.10;;
21677;SDS011;11000;50.360;7.582;2023-03-01T00:28:03;13.20;;;9.47;;
21677;SDS011;11000;50.360;7.582;2023-03-01T00:30:24;13.63;;;9.70;;
21677;SDS011;11000;50.360;7.582;2023-03-01T00:32:44;15.30;;;9.63;;
21677;SDS011;11000;50.360;7.582;2023-03-01T00:35:05;14.10;;;9.83;;
21677;SDS011;11000;50.360;7.582;2023-03-01T00:37:25;12.93;;;9.00;;
21677;SDS011;11000;50.360;7.582;2023-03-01T00:39:46;14.13;;;9.30;;
21677;SDS011;11000;50.360;7.582;2023-03-01T00:42:07;13.97;;;9.33;;
21677;SDS011;11000;50.360;7.582;2023-03-01T00:44:27;13.20;;;9.07;;
21677;SDS011;11000;50.360;7.582;2023-03-01T00:46:48;12.60;;;8.97;;
21677;SDS011;11000;50.360;7.582;2023-03-01T00:49:08;15.87;;;9.10;;
21677;SDS011;11000;50.360;7.582;2023-03-01T00:51:29;14.50;;;9.53;;
21677;SDS011;11000;50.360;7.582;2023-03-01T00:53:51;12.77;;;8.67;;
21677;SDS011;11000;50.360;7.582;2023-03-01T00:56:13;14.83;;;9.17;;
21677;SDS011;11000;50.360;7.582;2023-03-01T00:58:34;16.40;;;9.73;;
21677;SDS011;11000;50.360;7.582;2023-03-01T01:00:55;13.27;;;9.03;;
21677;SDS011;11000;50.360;7.582;2023-03-01T01:03:16;13.50;;;9.13;;
21677;SDS011;11000;50.360;7.582;2023-03-01T01:05:36;13.63;;;9.07;;
21677;SDS011;11000;50.360;7.582;2023-03-01T01:07:57;13.97;;;9.70;;
21677;SDS011;11000;50.360;7.582;2023-03-01T01:10:17;15.37;;;9.40;;
21677;SDS011;11000;50.360;7.582;2023-03-01T01:12:38;14.17;;;9.50;;
21677;SDS011;11000;50.360;7.582;2023-03-01T01:14:58;13.13;;;9.30;;
21677;SDS011;11000;50.360;7.582;2023-03-01T01:17:19;13.87;;;9.47;;
21677;SDS011;11000;50.360;7.582;2023-03-01T01:19:40;13.27;;;9.23;;
21677;SDS011;11000;50.360;7.582;2023-03-01T01:22:00;13.77;;;9.60;;
21677;SDS011;11000;50.360;7.582;2023-03-01T01:24:21;13.73;;;9.37;;
21677;SDS011;11000;50.360;7.582;2023-03-01T01:26:41;15.33;;;9.27;;
21677;SDS011;11000;50.360;7.582;2023-03-01T01:29:03;14.40;;;9.77;;
21677;SDS011;11000;50.360;7.582;2023-03-01T01:31:25;13.97;;;9.47;;
21677;SDS011;11000;50.360;7.582;2023-03-01T01:33:46;16.67;;;10.73;;
21677;SDS011;11000;50.360;7.582;2023-03-01T01:36:07;14.20;;;9.77;;
21677;SDS011;11000;50.360;7.582;2023-03-01T01:38:28;14.50;;;9.77;;
21677;SDS011;11000;50.360;7.582;2023-03-01T01:40:49;15.53;;;9.97;;
21677;SDS011;11000;50.360;7.582;2023-03-01T01:43:21;16.70;;;11.37;;
21677;SDS011;11000;50.360;7.582;2023-03-01T01:45:43;15.97;;;10.13;;
21677;SDS011;11000;50.360;7.582;2023-03-01T01:48:05;15.87;;;10.77;;
21677;SDS011;11000;50.360;7.582;2023-03-01T01:50:31;16.33;;;10.80;;
21677;SDS011;11000;50.360;7.582;2023-03-01T01:52:57;17.43;;;11.07;;
21677;SDS011;11000;50.360;7.582;2023-03-01T01:55:19;15.50;;;10.93;;
21677;SDS011;11000;50.360;7.582;2023-03-01T01:57:46;15.90;;;10.77;;
21677;SDS011;11000;50.360;7.582;2023-03-01T02:00:17;18.33;;;10.40;;
21677;SDS011;11000;50.360;7.582;2023-03-01T02:02:42;15.87;;;10.13;;
21677;SDS011;11000;50.360;7.582;2023-03-01T02:05:17;13.90;;;9.67;;
21677;SDS011;11000;50.360;7.582;2023-03-01T02:07:57;15.37;;;10.80;;
21677;SDS011;11000;50.360;7.582;2023-03-01T02:10:19;17.17;;;10.67;;
21677;SDS011;11000;50.360;7.582;2023-03-01T02:12:42;15.57;;;10.17;;
21677;SDS011;11000;50.360;7.582;2023-03-01T02:15:03;16.00;;;10.60;;
21677;SDS011;11000;50.360;7.582;2023-03-01T02:17:24;17.00;;;11.50;;
21677;SDS011;11000;50.360;7.582;2023-03-01T02:19:51;16.03;;;11.03;;
21677;SDS011;11000;50.360;7.582;2023-03-01T02:22:31;15.97;;;10.20;;
21677;SDS011;11000;50.360;7.582;2023-03-01T02:30:35;15.90;;;10.10;;
21677;SDS011;11000;50.360;7.582;2023-03-01T02:32:56;18.10;;;11.47;;
21677;SDS011;11000;50.360;7.582;2023-03-01T02:35:22;19.13;;;10.97;;
21677;SDS011;11000;50.360;7.582;2023-03-01T02:37:43;15.77;;;9.90;;
21677;SDS011;11000;50.360;7.582;2023-03-01T02:40:05;13.60;;;10.27;;
21677;SDS011;11000;50.360;7.582;2023-03-01T02:42:32;15.20;;;10.23;;
21677;SDS011;11000;50.360;7.582;2023-03-01T02:44:56;16.77;;;11.03;;
21677;SDS011;11000;50.360;7.582;2023-03-01T02:47:16;14.93;;;11.17;;
21677;SDS011;11000;50.360;7.582;2023-03-01T02:49:37;15.57;;;9.93;;
21677;SDS011;11000;50.360;7.582;2023-03-01T02:54:59;15.93;;;10.67;;
21677;SDS011;11000;50.360;7.582;2023-03-01T02:57:24;15.43;;;10.23;;
21677;SDS011;11000;50.360;7.582;2023-03-01T02:59:47;16.67;;;11.60;;
21677;SDS011;11000;50.360;7.582;2023-03-01T03:02:18;18.03;;;11.93;;
21677;SDS011;11000;50.360;7.582;2023-03-01T03:04:42;16.83;;;10.47;;
21677;SDS011;11000;50.360;7.582;2023-03-01T03:07:02;15.33;;;10.50;;
21677;SDS011;11000;50.360;7.582;2023-03-01T03:09:23;15.37;;;11.23;;
21677;SDS011;11000;50.360;7.582;2023-03-01T03:11:43;17.67;;;11.30;;
21677;SDS011;11000;50.360;7.582;2023-03-01T03:14:04;17.47;;;11.13;;
21677;SDS011;11000;50.360;7.582;2023-03-01T03:16:25;19.10;;;12.80;;
21677;SDS011;11000;50.360;7.582;2023-03-01T03:18:46;14.60;;;11.13;;
21677;SDS011;11000;50.360;7.582;2023-03-01T03:21:07;18.87;;;12.00;;
21677;SDS011;11000;50.360;7.582;2023-03-01T03:23:30;18.27;;;11.57;;
21677;SDS011;11000;50.360;7.582;2023-03-01T03:25:51;17.77;;;11.07;;
21677;SDS011;11000;50.360;7.582;2023-03-01T03:28:12;18.00;;;11.77;;
21677;SDS011;11000;50.360;7.582;2023-03-01T03:30:32;18.87;;;11.93;;
21677;SDS011;11000;50.360;7.582;2023-03-01T03:32:53;23.43;;;12.30;;
21677;SDS011;11000;50.360;7.582;2023-03-01T03:35:13;21.97;;;13.13;;
21677;SDS011;11000;50.360;7.582;2023-03-01T03:37:38;19.83;;;12.93;;
21677;SDS011;11000;50.360;7.582;2023-03-01T03:40:18;18.53;;;11.20;;
21677;SDS011;11000;50.360;7.582;2023-03-01T03:42:39;19.90;;;12.20;;
21677;SDS011;11000;50.360;7.582;2023-03-01T03:44:59;18.70;;;12.60;;
21677;SDS011;11000;50.360;7.582;2023-03-01T03:47:20;17.43;;;11.23;;
21677;SDS011;11000;50.360;7.582;2023-03-01T03:49:40;18.60;;;10.87;;
21677;SDS011;11000;50.360;7.582;2023-03-01T03:52:01;16.97;;;11.13;;
21677;SDS011;11000;50.360;7.582;2023-03-01T03:54:21;17.17;;;10.83;;
21677;SDS011;11000;50.360;7.582;2023-03-01T03:56:42;18.30;;;11.50;;
21677;SDS011;11000;50.360;7.582;2023-03-01T03:59:03;19.57;;;11.83;;
21677;SDS011;11000;50.360;7.582;2023-03-01T04:01:25;18.77;;;11.60;;
21677;SDS011;11000;50.360;7.582;2023-03-01T04:03:46;20.97;;;12.00;;
21677;SDS011;11000;50.360;7.582;2023-03-01T04:06:06;16.50;;;10.90;;
21677;SDS011;11000;50.360;7.582;2023-03-01T04:08:27;15.63;;;11.60;;
21677;SDS011;11000;50.360;7.582;2023-03-01T04:10:49;21.40;;;12.53;;
21677;SDS011;11000;50.360;7.582;2023-03-01T04:13:12;20.20;;;11.30;;
21677;SDS011;11000;50.360;7.582;2023-03-01T04:15:34;19.43;;;10.90;;
21677;SDS011;11000;50.360;7.582;2023-03-01T04:17:55;20.03;;;12.73;;
21677;SDS011;11000;50.360;7.582;2023-03-01T04:20:17;19.13;;;11.93;;
21677;SDS011;11000;50.360;7.582;2023-03-01T04:22:45;18.30;;;12.10;;
21677;SDS011;11000;50.360;7.582;2023-03-01T04:25:07;17.43;;;11.30;;
21677;SDS011;11000;50.360;7.582;2023-03-01T04:27:27;18.43;;;11.97;;
21677;SDS011;11000;50.360;7.582;2023-03-01T04:29:48;18.33;;;11.77;;
21677;SDS011;11000;50.360;7.582;2023-03-01T04:32:08;18.83;;;11.43;;
21677;SDS011;11000;50.360;7.582;2023-03-01T04:34:29;18.27;;;11.20;;
21677;SDS011;11000;50.360;7.582;2023-03-01T04:36:50;19.40;;;11.60;;
21677;SDS011;11000;50.360;7.582;2023-03-01T04:39:10;16.83;;;11.33;;
21677;SDS011;11000;50.360;7.582;2023-03-01T04:41:34;21.13;;;11.93;;
21677;SDS011;11000;50.360;7.582;2023-03-01T04:43:54;22.43;;;12.47;;
21677;SDS011;11000;50.360;7.582;2023-03-01T04:46:16;20.57;;;12.00;;
21677;SDS011;11000;50.360;7.582;2023-03-01T04:48:38;21.17;;;11.57;;
21677;SDS011;11000;50.360;7.582;2023-03-01T04:50:59;18.60;;;11.70;;
21677;SDS011;11000;50.360;7.582;2023-03-01T04:53:20;20.17;;;11.43;;
21677;SDS011;11000;50.360;7.582;2023-03-01T04:55:41;19.07;;;11.87;;
21677;SDS011;11000;50.360;7.582;2023-03-01T04:58:01;18.67;;;11.67;;
21677;SDS011;11000;50.360;7.582;2023-03-01T05:00:22;18.93;;;11.20;;
21677;SDS011;11000;50.360;7.582;2023-03-01T05:02:43;19.63;;;11.87;;
21677;SDS011;11000;50.360;7.582;2023-03-01T05:05:09;20.37;;;11.50;;
21677;SDS011;11000;50.360;7.582;2023-03-01T05:07:30;17.07;;;11.10;;
21677;SDS011;11000;50.360;7.582;2023-03-01T05:09:50;18.60;;;11.27;;
21677;SDS011;11000;50.360;7.582;2023-03-01T05:12:10;20.23;;;11.57;;
21677;SDS011;11000;50.360;7.582;2023-03-01T05:14:31;16.67;;;11.30;;
21677;SDS011;11000;50.360;7.582;2023-03-01T05:16:52;16.47;;;11.30;;
21677;SDS011;11000;50.360;7.582;2023-03-01T05:19:12;18.73;;;11.60;;
21677;SDS011;11000;50.360;7.582;2023-03-01T05:21:35;21.17;;;11.20;;
21677;SDS011;11000;50.360;7.582;2023-03-01T05:24:15;17.80;;;10.40;;
21677;SDS011;11000;50.360;7.582;2023-03-01T05:26:36;19.43;;;11.77;;
21677;SDS011;11000;50.360;7.582;2023-03-01T05:29:00;23.53;;;12.27;;
21677;SDS011;11000;50.360;7.582;2023-03-01T05:31:20;18.13;;;12.03;;
21677;SDS011;11000;50.360;7.582;2023-03-01T05:33:41;21.80;;;11.97;;
21677;SDS011;11000;50.360;7.582;2023-03-01T05:36:01;19.77;;;11.60;;
21677;SDS011;11000;50.360;7.582;2023-03-01T05:38:22;17.43;;;11.73;;
21677;SDS011;11000;50.360;7.582;2023-03-01T05:40:44;18.83;;;11.70;;
21677;SDS011;11000;50.360;7.582;2023-03-01T05:43:06;22.80;;;12.20;;
21677;SDS011;11000;50.360;7.582;2023-03-01T05:45:27;18.77;;;11.57;;
21677;SDS011;11000;50.360;7.582;2023-03-01T05:47:49;20.53;;;12.17;;
21677;SDS011;11000;50.360;7.582;2023-03-01T05:50:12;19.90;;;11.07;;
21677;SDS011;11000;50.360;7.582;2023-03-01T05:52:33;19.63;;;11.63;;
21677;SDS011;11000;50.360;7.582;2023-03-01T05:54:54;16.30;;;11.03;;
21677;SDS011;11000;50.360;7.582;2023-03-01T05:57:15;19.27;;;10.90;;
21677;SDS011;11000;50.360;7.582;2023-03-01T05:59:35;19.40;;;11.50;;
21677;SDS011;11000;50.360;7.582;2023-03-01T06:01:56;17.97;;;11.43;;
21677;SDS011;11000;50.360;7.582;2023-03-01T06:04:17;18.73;;;12.10;;
21677;SDS011;11000;50.360;7.582;2023-03-01T06:06:37;17.67;;;10.90;;
21677;SDS011;11000;50.360;7.582;2023-03-01T06:08:58;18.37;;;11.63;;
21677;SDS011;11000;50.360;7.582;2023-03-01T06:11:19;19.00;;;12.40;;
21677;SDS011;11000;50.360;7.582;2023-03-01T06:13:41;23.30;;;11.90;;
21677;SDS011;11000;50.360;7.582;2023-03-01T06:16:06;16.93;;;11.63;;
21677;SDS011;11000;50.360;7.582;2023-03-01T06:18:27;20.90;;;12.00;;
21677;SDS011;11000;50.360;7.582;2023-03-01T06:20:54;18.30;;;12.40;;
21677;SDS011;11000;50.360;7.582;2023-03-01T06:23:15;26.73;;;13.00;;
21677;SDS011;11000;50.360;7.582;2023-03-01T06:25:35;25.67;;;13.13;;
21677;SDS011;11000;50.360;7.582;2023-03-01T06:27:57;19.43;;;12.53;;
21677;SDS011;11000;50.360;7.582;2023-03-01T06:30:18;19.67;;;13.00;;
21677;SDS011;11000;50.360;7.582;2023-03-01T06:32:40;21.33;;;12.63;;
21677;SDS011;11000;50.360;7.582;2023-03-01T06:35:04;22.13;;;12.93;;
21677;SDS011;11000;50.360;7.582;2023-03-01T06:37:25;21.40;;;12.90;;
21677;SDS011;11000;50.360;7.582;2023-03-01T06:39:46;18.77;;;12.17;;
21677;SDS011;11000;50.360;7.582;2023-03-01T06:42:09;16.90;;;12.63;;
21677;SDS011;11000;50.360;7.582;2023-03-01T06:44:30;22.90;;;12.00;;
21677;SDS011;11000;50.360;7.582;2023-03-01T06:46:51;25.40;;;12.87;;
21677;SDS011;11000;50.360;7.582;2023-03-01T06:49:12;19.33;;;12.17;;
21677;SDS011;11000;50.360;7.582;2023-03-01T06:51:32;19.37;;;12.57;;
21677;SDS011;11000;50.360;7.582;2023-03-01T06:53:53;24.83;;;14.73;;
21677;SDS011;11000;50.360;7.582;2023-03-01T06:56:13;23.43;;;13.03;;
21677;SDS011;11000;50.360;7.582;2023-03-01T06:58:34;22.17;;;14.10;;
21677;SDS011;11000;50.360;7.582;2023-03-01T07:00:54;20.63;;;13.03;;
21677;SDS011;11000;50.360;7.582;2023-03-01T07:03:15;21.03;;;12.77;;
21677;SDS011;11000;50.360;7.582;2023-03-01T07:05:35;20.70;;;12.80;;
21677;SDS011;11000;50.360;7.582;2023-03-01T07:07:56;25.83;;;13.70;;
21677;SDS011;11000;50.360;7.582;2023-03-01T07:10:17;23.97;;;13.53;;
21677;SDS011;11000;50.360;7.582;2023-03-01T07:12:37;21.57;;;13.70;;
21677;SDS011;11000;50.360;7.582;2023-03-01T07:14:58;21.97;;;13.80;;
21677;SDS011;11000;50.360;7.582;2023-03-01T07:17:18;24.03;;;13.83;;
21677;SDS011;11000;50.360;7.582;2023-03-01T07:19:39;25.27;;;14.10;;
21677;SDS011;11000;50.360;7.582;2023-03-01T07:21:59;21.97;;;12.90;;
21677;SDS011;11000;50.360;7.582;2023-03-01T07:24:20;27.20;;;14.00;;
21677;SDS011;11000;50.360;7.582;2023-03-01T07:26:40;25.30;;;14.07;;
21677;SDS011;11000;50.360;7.582;2023-03-01T07:29:01;27.13;;;13.47;;
21677;SDS011;11000;50.360;7.582;2023-03-01T07:31:23;26.77;;;14.93;;
21677;SDS011;11000;50.360;7.582;2023-03-01T07:33:43;25.90;;;13.73;;
21677;SDS011;11000;50.360;7.582;2023-03-01T07:36:04;24.73;;;13.93;;
21677;SDS011;11000;50.360;7.582;2023-03-01T07:38:26;21.30;;;13.70;;
21677;SDS011;11000;50.360;7.582;2023-03-01T07:40:47;25.23;;;15.03;;
21677;SDS011;11000;50.360;7.582;2023-03-01T07:43:08;24.33;;;13.93;;
21677;SDS011;11000;50.360;7.582;2023-03-01T07:45:28;23.80;;;13.83;;
21677;SDS011;11000;50.360;7.582;2023-03-01T07:47:50;28.30;;;13.57;;
21677;SDS011;11000;50.360;7.582;2023-03-01T07:50:11;21.27;;;14.00;;
21677;SDS011;11000;50.360;7.582;2023-03-01T07:52:31;23.40;;;14.30;;
21677;SDS011;11000;50.360;7.582;2023-03-01T07:54:52;26.70;;;14.43;;
21677;SDS011;11000;50.360;7.582;2023-03-01T07:57:12;22.33;;;14.57;;
21677;SDS011;11000;50.360;7.582;2023-03-01T07:59:33;28.37;;;15.97;;
21677;SDS011;11000;50.360;7.582;2023-03-01T08:01:54;23.57;;;14.00;;
21677;SDS011;11000;50.360;7.582;2023-03-01T08:04:15;31.97;;;14.73;;
21677;SDS011;11000;50.360;7.582;2023-03-01T08:06:36;22.57;;;14.17;;
21677;SDS011;11000;50.360;7.582;2023-03-01T08:08:57;24.97;;;14.40;;
21677;SDS011;11000;50.360;7.582;2023-03-01T08:11:18;22.90;;;15.43;;
21677;SDS011;11000;50.360;7.582;2023-03-01T08:13:38;28.07;;;16.10;;
21677;SDS011;11000;50.360;7.582;2023-03-01T08:16:03;28.33;;;15.20;;
21677;SDS011;11000;50.360;7.582;2023-03-01T08:18:26;22.67;;;13.63;;
21677;SDS011;11000;50.360;7.582;2023-03-01T08:20:46;25.60;;;15.43;;
21677;SDS011;11000;50.360;7.582;2023-03-01T08:23:07;26.53;;;14.93;;
21677;SDS011;11000;50.360;7.582;2023-03-01T08:25:27;26.17;;;14.93;;
21677;SDS011;11000;50.360;7.582;2023-03-01T08:27:48;27.73;;;15.10;;
21677;SDS011;11000;50.360;7.582;2023-03-01T08:30:09;28.43;;;14.40;;
21677;SDS011;11000;50.360;7.582;2023-03-01T08:32:32;27.00;;;15.20;;
21677;SDS011;11000;50.360;7.582;2023-03-01T08:34:56;25.20;;;15.40;;
21677;SDS011;11000;50.360;7.582;2023-03-01T08:37:16;27.37;;;14.73;;
21677;SDS011;11000;50.360;7.582;2023-03-01T08:39:37;27.63;;;14.90;;
21677;SDS011;11000;50.360;7.582;2023-03-01T08:41:57;26.87;;;15.00;;
21677;SDS011;11000;50.360;7.582;2023-03-01T08:44:18;28.70;;;15.37;;
21677;SDS011;11000;50.360;7.582;2023-03-01T08:46:41;24.70;;;15.43;;
21677;SDS011;11000;50.360;7.582;2023-03-01T08:49:05;27.80;;;15.90;;
21677;SDS011;11000;50.360;7.582;2023-03-01T08:51:27;29.57;;;15.40;;
21677;SDS011;11000;50.360;7.582;2023-03-01T08:53:49;25.53;;;15.63;;
21677;SDS011;11000;50.360;7.582;2023-03-01T08:56:09;25.33;;;14.73;;
21677;SDS011;11000;50.360;7.582;2023-03-01T08:58:31;29.33;;;15.03;;
21677;SDS011;11000;50.360;7.582;2023-03-01T09:00:51;23.80;;;14.90;;
21677;SDS011;11000;50.360;7.582;2023-03-01T09:03:12;23.07;;;14.33;;
21677;SDS011;11000;50.360;7.582;2023-03-01T09:05:33;23.63;;;15.23;;
21677;SDS011;11000;50.360;7.582;2023-03-01T09:07:54;26.10;;;14.97;;
21677;SDS011;11000;50.360;7.582;2023-03-01T09:10:14;23.63;;;14.80;;
21677;SDS011;11000;50.360;7.582;2023-03-01T09:12:35;26.27;;;15.30;;
21677;SDS011;11000;50.360;7.582;2023-03-01T09:14:56;27.80;;;15.57;;
21677;SDS011;11000;50.360;7.582;2023-03-01T09:17:16;25.23;;;15.97;;
21677;SDS011;11000;50.360;7.582;2023-03-01T09:19:37;27.97;;;16.27;;
21677;SDS011;11000;50.360;7.582;2023-03-01T09:21:57;29.20;;;16.37;;
21677;SDS011;11000;50.360;7.582;2023-03-01T09:24:21;29.10;;;15.97;;
21677;SDS011;11000;50.360;7.582;2023-03-01T09:26:44;29.67;;;15.33;;
21677;SDS011;11000;50.360;7.582;2023-03-01T09:29:08;21.97;;;15.10;;
21677;SDS011;11000;50.360;7.582;2023-03-01T09:31:29;22.77;;;14.53;;
21677;SDS011;11000;50.360;7.582;2023-03-01T09:33:50;21.67;;;13.67;;
21677;SDS011;11000;50.360;7.582;2023-03-01T09:36:13;20.13;;;13.33;;
21677;SDS011;11000;50.360;7.582;2023-03-01T09:38:35;23.93;;;14.10;;
21677;SDS011;11000;50.360;7.582;2023-03-01T09:40:55;23.37;;;14.63;;
21677;SDS011;11000;50.360;7.582;2023-03-01T09:43:49;21.53;;;14.07;;
21677;SDS011;11000;50.360;7.582;2023-03-01T09:46:04;24.97;;;13.50;;
21677;SDS011;11000;50.360;7.582;2023-03-01T09:48:37;21.90;;;14.17;;
21677;SDS011;11000;50.360;7.582;2023-03-01T09:51:06;23.13;;;14.53;;
21677;SDS011;11000;50.360;7.582;2023-03-01T09:53:34;27.07;;;14.93;;
21677;SDS011;11000;50.360;7.582;2023-03-01T09:55:57;24.77;;;15.40;;
21677;SDS011;11000;50.360;7.582;2023-03-01T10:01:15;22.17;;;13.70;;
21677;SDS011;11000;50.360;7.582;2023-03-01T10:04:00;22.77;;;15.40;;
21677;SDS011;11000;50.360;7.582;2023-03-01T10:06:26;23.67;;;14.57;;
21677;SDS011;11000;50.360;7.582;2023-03-01T10:08:53;24.27;;;14.23;;
21677;SDS011;11000;50.360;7.582;2023-03-01T10:11:35;22.97;;;14.20;;
21677;SDS011;11000;50.360;7.582;2023-03-01T10:14:02;29.85;;;16.45;;
21677;SDS011;11000;50.360;7.582;2023-03-01T10:19:33;23.53;;;14.33;;
21677;SDS011;11000;50.360;7.582;2023-03-01T10:24:42;25.80;;;14.17;;
21677;SDS011;11000;50.360;7.582;2023-03-01T10:27:06;22.80;;;14.40;;
21677;SDS011;11000;50.360;7.582;2023-03-01T10:29:46;24.00;;;13.97;;
21677;SDS011;11000;50.360;7.582;2023-03-01T10:32:20;21.43;;;14.60;;
21677;SDS011;11000;50.360;7.582;2023-03-01T10:34:41;23.93;;;14.60;;
21677;SDS011;11000;50.360;7.582;2023-03-01T10:37:15;24.17;;;15.47;;
21677;SDS011;11000;50.360;7.582;2023-03-01T10:42:26;22.70;;;14.93;;
21677;SDS011;11000;50.360;7.582;2023-03-01T10:44:51;23.60;;;14.20;;
21677;SDS011;11000;50.360;7.582;2023-03-01T10:47:13;25.10;;;14.90;;
21677;SDS011;11000;50.360;7.582;2023-03-01T10:49:34;23.47;;;14.07;;
21677;SDS011;11000;50.360;7.582;2023-03-01T10:51:55;18.47;;;13.43;;
21677;SDS011;11000;50.360;7.582;2023-03-01T10:56:50;20.17;;;12.33;;
21677;SDS011;11000;50.360;7.582;2023-03-01T10:59:25;18.77;;;12.33;;
21677;SDS011;11000;50.360;7.582;2023-03-01T11:02:00;18.23;;;11.50;;
21677;SDS011;11000;50.360;7.582;2023-03-01T11:04:38;18.83;;;11.40;;
21677;SDS011;11000;50.360;7.582;2023-03-01T11:06:59;16.87;;;10.90;;
21677;SDS011;11000;50.360;7.582;2023-03-01T11:09:22;18.77;;;11.93;;
21677;SDS011;11000;50.360;7.582;2023-03-01T11:11:44;17.47;;;12.03;;
21677;SDS011;11000;50.360;7.582;2023-03-01T11:14:21;16.97;;;11.37;;
21677;SDS011;11000;50.360;7.582;2023-03-01T11:16:44;16.27;;;10.97;;
21677;SDS011;11000;50.360;7.582;2023-03-01T11:21:30;17.53;;;11.67;;
21677;SDS011;11000;50.360;7.582;2023-03-01T11:23:53;17.57;;;10.93;;
21677;SDS011;11000;50.360;7.582;2023-03-01T11:26:14;16.43;;;10.60;;
21677;SDS011;11000;50.360;7.582;2023-03-01T11:28:37;15.50;;;10.37;;
21677;SDS011;11000;50.360;7.582;2023-03-01T11:31:04;17.17;;;11.83;;
21677;SDS011;11000;50.360;7.582;2023-03-01T11:33:35;16.77;;;10.63;;
21677;SDS011;11000;50.360;7.582;2023-03-01T11:38:54;16.03;;;10.77;;
21677;SDS011;11000;50.360;7.582;2023-03-01T11:43:43;15.83;;;11.23;;
21677;SDS011;11000;50.360;7.582;2023-03-01T11:49:07;15.17;;;11.23;;
21677;SDS011;11000;50.360;7.582;2023-03-01T12:06:01;16.63;;;10.67;;
21677;SDS011;11000;50.360;7.582;2023-03-01T12:14:04;15.57;;;10.33;;
21677;SDS011;11000;50.360;7.582;2023-03-01T12:16:56;15.93;;;9.60;;
21677;SDS011;11000;50.360;7.582;2023-03-01T12:30:26;13.37;;;9.73;;
21677;SDS011;11000;50.360;7.582;2023-03-01T12:38:15;13.57;;;9.30;;
21677;SDS011;11000;50.360;7.582;2023-03-01T12:49:23;12.27;;;9.10;;
21677;SDS011;11000;50.360;7.582;2023-03-01T12:51:56;14.50;;;8.53;;
21677;SDS011;11000;50.360;7.582;2023-03-01T12:54:31;12.47;;;8.60;;
21677;SDS011;11000;50.360;7.582;2023-03-01T12:56:55;12.60;;;9.10;;
21677;SDS011;11000;50.360;7.582;2023-03-01T13:07:16;10.23;;;8.17;;
21677;SDS011;11000;50.360;7.582;2023-03-01T13:15:13;10.40;;;7.87;;
21677;SDS011;11000;50.360;7.582;2023-03-01T13:20:55;9.57;;;7.50;;
21677;SDS011;11000;50.360;7.582;2023-03-01T13:26:04;20.60;;;8.47;;
21677;SDS011;11000;50.360;7.582;2023-03-01T13:30:54;9.13;;;6.53;;
21677;SDS011;11000;50.360;7.582;2023-03-01T13:35:47;8.07;;;5.83;;
21677;SDS011;11000;50.360;7.582;2023-03-01T13:41:08;6.83;;;5.37;;
21677;SDS011;11000;50.360;7.582;2023-03-01T13:43:29;8.43;;;5.27;;
21677;SDS011;11000;50.360;7.582;2023-03-01T13:45:52;7.60;;;5.50;;
21677;SDS011;11000;50.360;7.582;2023-03-01T13:48:17;7.63;;;5.07;;
21677;SDS011;11000;50.360;7.582;2023-03-01T13:50:51;9.60;;;5.30;;
21677;SDS011;11000;50.360;7.582;2023-03-01T13:53:22;8.87;;;5.37;;
21677;SDS011;11000;50.360;7.582;2023-03-01T13:55:47;6.60;;;4.97;;
21677;SDS011;11000;50.360;7.582;2023-03-01T13:58:27;7.37;;;5.10;;
21677;SDS011;11000;50.360;7.582;2023-03-01T14:00:55;10.73;;;5.77;;
21677;SDS011;11000;50.360;7.582;2023-03-01T14:03:20;6.60;;;4.93;;
21677;SDS011;11000;50.360;7.582;2023-03-01T14:05:41;7.57;;;4.87;;
21677;SDS011;11000;50.360;7.582;2023-03-01T14:08:24;7.73;;;5.03;;
21677;SDS011;11000;50.360;7.582;2023-03-01T14:10:52;10.03;;;5.07;;
21677;SDS011;11000;50.360;7.582;2023-03-01T14:13:31;6.53;;;4.60;;
21677;SDS011;11000;50.360;7.582;2023-03-01T14:16:07;11.07;;;5.87;;
21677;SDS011;11000;50.360;7.582;2023-03-01T14:19:04;7.40;;;5.60;;
21677;SDS011;11000;50.360;7.582;2023-03-01T14:21:20;9.00;;;5.33;;
21677;SDS011;11000;50.360;7.582;2023-03-01T14:23:42;7.70;;;5.50;;
21677;SDS011;11000;50.360;7.582;2023-03-01T14:26:03;9.07;;;5.57;;
21677;SDS011;11000;50.360;7.582;2023-03-01T14:30:48;9.20;;;6.07;;
21677;SDS011;11000;50.360;7.582;2023-03-01T14:33:18;12.33;;;6.00;;
21677;SDS011;11000;50.360;7.582;2023-03-01T14:35:39;8.03;;;6.23;;
21677;SDS011;11000;50.360;7.582;2023-03-01T14:38:00;8.00;;;5.43;;
21677;SDS011;11000;50.360;7.582;2023-03-01T14:40:22;6.43;;;4.37;;
21677;SDS011;11000;50.360;7.582;2023-03-01T14:42:51;10.07;;;5.37;;
21677;SDS011;11000;50.360;7.582;2023-03-01T14:45:13;9.03;;;5.00;;
21677;SDS011;11000;50.360;7.582;2023-03-01T14:47:35;7.57;;;4.83;;
21677;SDS011;11000;50.360;7.582;2023-03-01T14:49:59;7.17;;;5.20;;
21677;SDS011;11000;50.360;7.582;2023-03-01T14:52:25;8.20;;;4.90;;
21677;SDS011;11000;50.360;7.582;2023-03-01T14:54:59;5.57;;;4.33;;
21677;SDS011;11000;50.360;7.582;2023-03-01T14:57:23;6.83;;;5.30;;
21677;SDS011;11000;50.360;7.582;2023-03-01T14:59:45;7.53;;;5.20;;
21677;SDS011;11000;50.360;7.582;2023-03-01T15:02:08;8.30;;;4.40;;
21677;SDS011;11000;50.360;7.582;2023-03-01T15:04:36;4.43;;;3.67;;
21677;SDS011;11000;50.360;7.582;2023-03-01T15:06:57;6.33;;;4.33;;
21677;SDS011;11000;50.360;7.582;2023-03-01T15:09:24;7.13;;;4.60;;
21677;SDS011;11000;50.360;7.582;2023-03-01T15:11:45;7.70;;;4.60;;
21677;SDS011;11000;50.360;7.582;2023-03-01T15:14:24;10.40;;;4.50;;
21677;SDS011;11000;50.360;7.582;2023-03-01T15:16:48;10.47;;;4.07;;
21677;SDS011;11000;50.360;7.582;2023-03-01T15:19:15;6.10;;;4.40;;
21677;SDS011;11000;50.360;7.582;2023-03-01T15:21:38;6.60;;;4.37;;
21677;SDS011;11000;50.360;7.582;2023-03-01T15:24:05;7.87;;;4.10;;
21677;SDS011;11000;50.360;7.582;2023-03-01T15:26:40;5.97;;;4.10;;
21677;SDS011;11000;50.360;7.582;2023-03-01T15:29:02;6.87;;;4.53;;
21677;SDS011;11000;50.360;7.582;2023-03-01T15:31:24;6.33;;;3.93;;
21677;SDS011;11000;50.360;7.582;2023-03-01T15:33:47;5.07;;;4.43;;
21677;SDS011;11000;50.360;7.582;2023-03-01T15:38:59;7.17;;;4.73;;
21677;SDS011;11000;50.360;7.582;2023-03-01T15:41:22;7.33;;;4.67;;
21677;SDS011;11000;50.360;7.582;2023-03-01T15:43:46;5.37;;;4.17;;
21677;SDS011;11000;50.360;7.582;2023-03-01T15:48:47;6.80;;;4.90;;
21677;SDS011;11000;50.360;7.582;2023-03-01T15:51:12;7.63;;;4.43;;
21677;SDS011;11000;50.360;7.582;2023-03-01T15:53:34;6.43;;;4.17;;
21677;SDS011;11000;50.360;7.582;2023-03-01T15:55:55;8.33;;;5.17;;
21677;SDS011;11000;50.360;7.582;2023-03-01T15:58:17;6.43;;;4.60;;
21677;SDS011;11000;50.360;7.582;2023-03-01T16:00:40;5.63;;;4.20;;